EZY575B EGPH-EGAC
Flight info
| Callsign | EZY575B |
|---|---|
| Flight time | 0h 36m |
| Altitude | 20000 |
| Route | GOSAM P600 BLACA DCT MAGEE |
| Aircraft | A319/M-SDE2E3FGIJ1RWXYZ/LB1 |
Departure
| Time | 2026-04-25 11:59 |
|---|---|
| Airport | Edinburgh Airport (EGPH) |
Arrival
| Time | 2026-04-25 12:35 |
|---|---|
| Airport | George Best Belfast City Airport (EGAC) |
| Time | Latitude | Longitude | Altitude | Speed | Heading |
|---|---|---|---|---|---|
| 2026-04-25 11:30 | 55.94742 | -3.36873 | 117 ft | 0 kts | 269° |
| 2026-04-25 11:43 | 55.94742 | -3.36872 | 143 ft | 0 kts | 269° |
| 2026-04-25 11:49 | 55.94742 | -3.36832 | 116 ft | 4 kts | 274° |
| 2026-04-25 11:50 | 55.94738 | -3.36785 | 112 ft | 4 kts | 286° |
| 2026-04-25 11:50 | 55.94727 | -3.36745 | 112 ft | 4 kts | 326° |
| 2026-04-25 11:50 | 55.94717 | -3.36736 | 114 ft | 0 kts | 359° |
| 2026-04-25 11:53 | 55.94718 | -3.36736 | 116 ft | 1 kts | 359° |
| 2026-04-25 11:53 | 55.94744 | -3.36740 | 116 ft | 7 kts | 347° |
| 2026-04-25 11:53 | 55.94809 | -3.36779 | 116 ft | 12 kts | 1° |
| 2026-04-25 11:53 | 55.94893 | -3.36800 | 113 ft | 13 kts | 330° |
| 2026-04-25 11:54 | 55.94914 | -3.36930 | 116 ft | 13 kts | 240° |
| 2026-04-25 11:54 | 55.94867 | -3.37072 | 114 ft | 13 kts | 239° |
| 2026-04-25 11:54 | 55.94767 | -3.37364 | 114 ft | 14 kts | 239° |
| 2026-04-25 11:55 | 55.94716 | -3.37517 | 116 ft | 14 kts | 239° |
| 2026-04-25 11:55 | 55.94663 | -3.37672 | 116 ft | 15 kts | 238° |
| 2026-04-25 11:55 | 55.94609 | -3.37830 | 115 ft | 15 kts | 238° |
| 2026-04-25 11:55 | 55.94553 | -3.37993 | 115 ft | 15 kts | 238° |
| 2026-04-25 11:56 | 55.94497 | -3.38158 | 114 ft | 16 kts | 238° |
| 2026-04-25 11:56 | 55.94439 | -3.38327 | 115 ft | 16 kts | 239° |
| 2026-04-25 11:56 | 55.94381 | -3.38505 | 115 ft | 17 kts | 239° |
| 2026-04-25 11:56 | 55.94321 | -3.38681 | 115 ft | 17 kts | 239° |
| 2026-04-25 11:57 | 55.94281 | -3.38816 | 115 ft | 8 kts | 258° |
| 2026-04-25 11:57 | 55.94309 | -3.38893 | 114 ft | 8 kts | 324° |
| 2026-04-25 11:57 | 55.94360 | -3.38948 | 113 ft | 10 kts | 330° |
| 2026-04-25 11:57 | 55.94423 | -3.38950 | 112 ft | 10 kts | 54° |
| 2026-04-25 11:58 | 55.94446 | -3.38883 | 114 ft | 0 kts | 59° |
| 2026-04-25 11:58 | 55.94497 | -3.38730 | 113 ft | 49 kts | 59° |
| 2026-04-25 11:59 | 55.94809 | -3.37810 | 114 ft | 120 kts | 59° |
| 2026-04-25 11:59 | 55.95314 | -3.36320 | 490 ft | 144 kts | 59° |
| 2026-04-25 11:59 | 55.95836 | -3.34759 | 1206 ft | 147 kts | 61° |
| 2026-04-25 12:00 | 55.97538 | -3.32028 | 2193 ft | 187 kts | 45° |
| 2026-04-25 12:00 | 55.98549 | -3.30408 | 2737 ft | 203 kts | 44° |
| 2026-04-25 12:00 | 56.01356 | -3.28399 | 3566 ft | 252 kts | 346° |
| 2026-04-25 12:01 | 56.02881 | -3.29958 | 4384 ft | 259 kts | 310° |
| 2026-04-25 12:01 | 56.03603 | -3.32856 | 5418 ft | 260 kts | 276° |
| 2026-04-25 12:01 | 56.03477 | -3.36139 | 6519 ft | 262 kts | 261° |
| 2026-04-25 12:01 | 56.03016 | -3.39325 | 7498 ft | 265 kts | 255° |
| 2026-04-25 12:02 | 56.01826 | -3.45662 | 9343 ft | 273 kts | 253° |
| 2026-04-25 12:02 | 56.01233 | -3.48922 | 10218 ft | 279 kts | 255° |
| 2026-04-25 12:02 | 56.00657 | -3.52301 | 10746 ft | 296 kts | 256° |
| 2026-04-25 12:03 | 56.00058 | -3.56036 | 11221 ft | 313 kts | 257° |
| 2026-04-25 12:03 | 55.99476 | -3.59801 | 11988 ft | 319 kts | 257° |
| 2026-04-25 12:03 | 55.98906 | -3.63675 | 12782 ft | 323 kts | 258° |
| 2026-04-25 12:03 | 55.98353 | -3.67556 | 13557 ft | 329 kts | 257° |
| 2026-04-25 12:04 | 55.97785 | -3.71574 | 14314 ft | 333 kts | 258° |
| 2026-04-25 12:04 | 55.97215 | -3.75599 | 15014 ft | 336 kts | 257° |
| 2026-04-25 12:04 | 55.96636 | -3.79651 | 15794 ft | 338 kts | 257° |
| 2026-04-25 12:04 | 55.96047 | -3.83748 | 16448 ft | 343 kts | 256° |
| 2026-04-25 12:05 | 55.95447 | -3.87880 | 17096 ft | 348 kts | 256° |
| 2026-04-25 12:05 | 55.94831 | -3.92101 | 17834 ft | 350 kts | 255° |
| 2026-04-25 12:05 | 55.94210 | -3.96314 | 18525 ft | 354 kts | 253° |
| 2026-04-25 12:05 | 55.93250 | -4.00388 | 19067 ft | 358 kts | 238° |
| 2026-04-25 12:06 | 55.91746 | -4.03906 | 19591 ft | 362 kts | 224° |
| 2026-04-25 12:06 | 55.89778 | -4.06733 | 20073 ft | 366 kts | 214° |
| 2026-04-25 12:06 | 55.87679 | -4.09315 | 20210 ft | 364 kts | 213° |
| 2026-04-25 12:06 | 55.85622 | -4.11831 | 20237 ft | 347 kts | 214° |
| 2026-04-25 12:07 | 55.83647 | -4.14237 | 20241 ft | 342 kts | 213° |
| 2026-04-25 12:07 | 55.81695 | -4.16609 | 20244 ft | 339 kts | 213° |
| 2026-04-25 12:07 | 55.79756 | -4.18965 | 20244 ft | 337 kts | 214° |
| 2026-04-25 12:07 | 55.77816 | -4.21335 | 20238 ft | 338 kts | 214° |
| 2026-04-25 12:08 | 55.75900 | -4.23709 | 20242 ft | 339 kts | 214° |
| 2026-04-25 12:08 | 55.73959 | -4.26129 | 20239 ft | 338 kts | 214° |
| 2026-04-25 12:08 | 55.72039 | -4.28522 | 20237 ft | 337 kts | 214° |
| 2026-04-25 12:08 | 55.70119 | -4.30910 | 20236 ft | 338 kts | 214° |
| 2026-04-25 12:09 | 55.68184 | -4.33309 | 20237 ft | 339 kts | 214° |
| 2026-04-25 12:09 | 55.66251 | -4.35701 | 20239 ft | 339 kts | 214° |
| 2026-04-25 12:09 | 55.64280 | -4.38141 | 20239 ft | 339 kts | 213° |
| 2026-04-25 12:09 | 55.62353 | -4.40522 | 20240 ft | 339 kts | 214° |
| 2026-04-25 12:10 | 55.60390 | -4.42940 | 20233 ft | 339 kts | 214° |
| 2026-04-25 12:10 | 55.58455 | -4.45319 | 20233 ft | 339 kts | 213° |
| 2026-04-25 12:10 | 55.56518 | -4.47694 | 20239 ft | 339 kts | 213° |
| 2026-04-25 12:10 | 55.54581 | -4.50067 | 20242 ft | 339 kts | 213° |
| 2026-04-25 12:11 | 55.52647 | -4.52437 | 20239 ft | 338 kts | 213° |
| 2026-04-25 12:11 | 55.50717 | -4.54803 | 20239 ft | 338 kts | 213° |
| 2026-04-25 12:11 | 55.48788 | -4.57167 | 20236 ft | 338 kts | 213° |
| 2026-04-25 12:11 | 55.46855 | -4.59535 | 20227 ft | 338 kts | 213° |
| 2026-04-25 12:12 | 55.45539 | -4.61144 | 20228 ft | 338 kts | 213° |
| 2026-04-25 12:12 | 55.43617 | -4.63485 | 20230 ft | 338 kts | 213° |
| 2026-04-25 12:12 | 55.41683 | -4.65836 | 20238 ft | 338 kts | 213° |
| 2026-04-25 12:12 | 55.39740 | -4.68198 | 20237 ft | 337 kts | 213° |
| 2026-04-25 12:13 | 55.37797 | -4.70563 | 20220 ft | 337 kts | 213° |
| 2026-04-25 12:13 | 55.35868 | -4.72907 | 20221 ft | 338 kts | 213° |
| 2026-04-25 12:13 | 55.33847 | -4.75352 | 20211 ft | 362 kts | 213° |
| 2026-04-25 12:13 | 55.31687 | -4.77941 | 20209 ft | 382 kts | 212° |
| 2026-04-25 12:14 | 55.29327 | -4.80174 | 20215 ft | 388 kts | 206° |
| 2026-04-25 12:14 | 55.26875 | -4.82336 | 20211 ft | 389 kts | 206° |
| 2026-04-25 12:14 | 55.24453 | -4.84462 | 20213 ft | 389 kts | 206° |
| 2026-04-25 12:14 | 55.22031 | -4.86582 | 20212 ft | 390 kts | 206° |
| 2026-04-25 12:15 | 55.19607 | -4.88703 | 20215 ft | 390 kts | 206° |
| 2026-04-25 12:15 | 55.17193 | -4.90819 | 20213 ft | 390 kts | 206° |
| 2026-04-25 12:15 | 55.14724 | -4.92980 | 20215 ft | 389 kts | 206° |
| 2026-04-25 12:15 | 55.12306 | -4.95095 | 20223 ft | 388 kts | 206° |
| 2026-04-25 12:16 | 55.09929 | -4.97165 | 20209 ft | 386 kts | 206° |
| 2026-04-25 12:16 | 55.07510 | -4.99270 | 19857 ft | 382 kts | 206° |
| 2026-04-25 12:16 | 55.05147 | -5.01321 | 19362 ft | 379 kts | 206° |
| 2026-04-25 12:16 | 55.02760 | -5.03390 | 18872 ft | 376 kts | 206° |
| 2026-04-25 12:17 | 55.00427 | -5.05416 | 18391 ft | 373 kts | 206° |
| 2026-04-25 12:17 | 54.98115 | -5.07429 | 17833 ft | 370 kts | 206° |
| 2026-04-25 12:17 | 54.95872 | -5.09381 | 17293 ft | 368 kts | 206° |
| 2026-04-25 12:17 | 54.93536 | -5.11405 | 16738 ft | 365 kts | 206° |
| 2026-04-25 12:18 | 54.91278 | -5.13371 | 16201 ft | 363 kts | 207° |
| 2026-04-25 12:18 | 54.89244 | -5.15937 | 15671 ft | 361 kts | 223° |
| 2026-04-25 12:18 | 54.87725 | -5.19396 | 15141 ft | 362 kts | 240° |
| 2026-04-25 12:18 | 54.86771 | -5.23516 | 14673 ft | 363 kts | 249° |
| 2026-04-25 12:19 | 54.85398 | -5.30359 | 13905 ft | 361 kts | 249° |
| 2026-04-25 12:19 | 54.84287 | -5.35848 | 13233 ft | 358 kts | 249° |
| 2026-04-25 12:19 | 54.83459 | -5.39902 | 12737 ft | 355 kts | 249° |
| 2026-04-25 12:20 | 54.82635 | -5.43927 | 12251 ft | 353 kts | 249° |
| 2026-04-25 12:20 | 54.81803 | -5.47979 | 11807 ft | 350 kts | 249° |
| 2026-04-25 12:20 | 54.80987 | -5.51940 | 11384 ft | 348 kts | 249° |
| 2026-04-25 12:20 | 54.80176 | -5.55875 | 10966 ft | 346 kts | 249° |
| 2026-04-25 12:21 | 54.79208 | -5.59654 | 10546 ft | 342 kts | 237° |
| 2026-04-25 12:21 | 54.77685 | -5.62835 | 10133 ft | 338 kts | 221° |
| 2026-04-25 12:21 | 54.75857 | -5.65365 | 9687 ft | 334 kts | 217° |
| 2026-04-25 12:21 | 54.74046 | -5.67821 | 9251 ft | 327 kts | 218° |
| 2026-04-25 12:22 | 54.72253 | -5.70258 | 8859 ft | 319 kts | 218° |
| 2026-04-25 12:22 | 54.70529 | -5.72604 | 8474 ft | 312 kts | 218° |
| 2026-04-25 12:22 | 54.68840 | -5.74901 | 8094 ft | 306 kts | 218° |
| 2026-04-25 12:22 | 54.67179 | -5.77156 | 7720 ft | 301 kts | 218° |
| 2026-04-25 12:23 | 54.65550 | -5.79365 | 7377 ft | 295 kts | 218° |
| 2026-04-25 12:23 | 54.63931 | -5.81563 | 7030 ft | 289 kts | 218° |
| 2026-04-25 12:23 | 54.62385 | -5.83660 | 6690 ft | 284 kts | 218° |
| 2026-04-25 12:23 | 54.60829 | -5.85772 | 6328 ft | 279 kts | 218° |
| 2026-04-25 12:24 | 54.59311 | -5.87833 | 5969 ft | 275 kts | 218° |
| 2026-04-25 12:24 | 54.57820 | -5.89853 | 5610 ft | 271 kts | 218° |
| 2026-04-25 12:24 | 54.56346 | -5.91842 | 5255 ft | 267 kts | 218° |
| 2026-04-25 12:24 | 54.54880 | -5.93821 | 4883 ft | 263 kts | 218° |
| 2026-04-25 12:25 | 54.53428 | -5.95782 | 4485 ft | 260 kts | 218° |
| 2026-04-25 12:25 | 54.52012 | -5.97688 | 4099 ft | 258 kts | 218° |
| 2026-04-25 12:25 | 54.50584 | -5.99611 | 3706 ft | 256 kts | 218° |
| 2026-04-25 12:25 | 54.49192 | -6.01485 | 3325 ft | 252 kts | 217° |
| 2026-04-25 12:26 | 54.47820 | -6.03325 | 3004 ft | 247 kts | 217° |
| 2026-04-25 12:26 | 54.46510 | -6.05079 | 2982 ft | 231 kts | 217° |
| 2026-04-25 12:26 | 54.45253 | -6.06762 | 2977 ft | 224 kts | 217° |
| 2026-04-25 12:26 | 54.44405 | -6.07894 | 2981 ft | 225 kts | 217° |
| 2026-04-25 12:27 | 54.43179 | -6.09535 | 2978 ft | 224 kts | 217° |
| 2026-04-25 12:27 | 54.41963 | -6.11167 | 2978 ft | 224 kts | 217° |
| 2026-04-25 12:27 | 54.40691 | -6.12890 | 2977 ft | 225 kts | 218° |
| 2026-04-25 12:27 | 54.39461 | -6.14560 | 2966 ft | 224 kts | 218° |
| 2026-04-25 12:28 | 54.38341 | -6.16398 | 2954 ft | 226 kts | 238° |
| 2026-04-25 12:28 | 54.38045 | -6.19001 | 2972 ft | 229 kts | 278° |
| 2026-04-25 12:28 | 54.38829 | -6.21334 | 2964 ft | 232 kts | 320° |
| 2026-04-25 12:28 | 54.40330 | -6.22243 | 2961 ft | 234 kts | 1° |
| 2026-04-25 12:29 | 54.41842 | -6.21247 | 2962 ft | 235 kts | 44° |
| 2026-04-25 12:29 | 54.42700 | -6.18906 | 2976 ft | 232 kts | 67° |
| 2026-04-25 12:29 | 54.43383 | -6.16384 | 2965 ft | 232 kts | 66° |
| 2026-04-25 12:29 | 54.44075 | -6.13888 | 2968 ft | 233 kts | 66° |
| 2026-04-25 12:30 | 54.44774 | -6.11371 | 2961 ft | 233 kts | 65° |
| 2026-04-25 12:30 | 54.45468 | -6.08866 | 2978 ft | 232 kts | 66° |
| 2026-04-25 12:30 | 54.46197 | -6.06500 | 2957 ft | 214 kts | 54° |
| 2026-04-25 12:30 | 54.47209 | -6.04759 | 3005 ft | 201 kts | 39° |
| 2026-04-25 12:31 | 54.48286 | -6.03379 | 2984 ft | 185 kts | 36° |
| 2026-04-25 12:31 | 54.49270 | -6.02196 | 2844 ft | 160 kts | 36° |
| 2026-04-25 12:31 | 54.50149 | -6.01150 | 2669 ft | 147 kts | 36° |
| 2026-04-25 12:31 | 54.50971 | -6.00173 | 2501 ft | 143 kts | 36° |
| 2026-04-25 12:32 | 54.51773 | -5.99219 | 2300 ft | 138 kts | 36° |
| 2026-04-25 12:32 | 54.52572 | -5.98269 | 2126 ft | 137 kts | 36° |
| 2026-04-25 12:32 | 54.53337 | -5.97358 | 1944 ft | 137 kts | 36° |
| 2026-04-25 12:32 | 54.54152 | -5.96389 | 1752 ft | 136 kts | 36° |
| 2026-04-25 12:33 | 54.54930 | -5.95463 | 1561 ft | 135 kts | 36° |
| 2026-04-25 12:33 | 54.55700 | -5.94545 | 1387 ft | 135 kts | 36° |
| 2026-04-25 12:33 | 54.56470 | -5.93628 | 1191 ft | 133 kts | 36° |
| 2026-04-25 12:33 | 54.57230 | -5.92722 | 1014 ft | 132 kts | 36° |
| 2026-04-25 12:34 | 54.57977 | -5.91827 | 818 ft | 129 kts | 36° |
| 2026-04-25 12:34 | 54.58709 | -5.90949 | 646 ft | 127 kts | 35° |
| 2026-04-25 12:34 | 54.59444 | -5.90077 | 475 ft | 127 kts | 35° |
| 2026-04-25 12:34 | 54.59920 | -5.89502 | 354 ft | 125 kts | 36° |
| 2026-04-25 12:35 | 54.60861 | -5.88367 | 118 ft | 122 kts | 34° |
| 2026-04-25 12:35 | 54.61545 | -5.87566 | 24 ft | 108 kts | 34° |
| 2026-04-25 12:35 | 54.61997 | -5.87026 | 23 ft | 54 kts | 35° |
| 2026-04-25 12:35 | 54.62229 | -5.86753 | 24 ft | 28 kts | 32° |
| 2026-04-25 12:36 | 54.62372 | -5.86580 | 25 ft | 24 kts | 37° |
| 2026-04-25 12:36 | 54.62435 | -5.86479 | 24 ft | 9 kts | 340° |
| 2026-04-25 12:36 | 54.62414 | -5.86544 | 24 ft | 8 kts | 205° |
| 2026-04-25 12:36 | 54.62308 | -5.86654 | 24 ft | 30 kts | 214° |
| 2026-04-25 12:37 | 54.62128 | -5.86865 | 22 ft | 32 kts | 214° |
| 2026-04-25 12:37 | 54.61946 | -5.87086 | 23 ft | 32 kts | 215° |
| 2026-04-25 12:37 | 54.61807 | -5.87113 | 23 ft | 20 kts | 129° |
| 2026-04-25 12:37 | 54.61723 | -5.86999 | 23 ft | 16 kts | 202° |
| 2026-04-25 12:38 | 54.61658 | -5.87069 | 23 ft | 3 kts | 212° |
| 2026-04-25 12:38 | 54.61637 | -5.87077 | 23 ft | 3 kts | 166° |
| 2026-04-25 12:38 | 54.61612 | -5.87059 | 25 ft | 4 kts | 157° |
| 2026-04-25 12:38 | 54.61607 | -5.87056 | 24 ft | 1 kts | 161° |
| 2026-04-25 12:39 | 54.61599 | -5.87079 | 25 ft | 3 kts | 262° |
| 2026-04-25 12:39 | 54.61599 | -5.87128 | 23 ft | 5 kts | 249° |
| 2026-04-25 12:39 | 54.61566 | -5.87164 | 23 ft | 7 kts | 154° |
| 2026-04-25 12:39 | 54.61544 | -5.87110 | 23 ft | 1 kts | 123° |
| 2026-04-25 12:40 | 54.61537 | -5.87094 | 23 ft | 0 kts | 124° |